Time;durP1;ratioP1;P1;durP2;ratioP2;P2;SDS_P1;SDS_P2;PMS_P1;PMS_P2;Temp;Humidity;BMP_temperature;BMP_pressure;BME280_temperature;BME280_humidity;BME280_pressure;Samples;Min_cycle;Max_cycle;Signal;HPM_P1;HPM_P2
2023/07/13 00:00:24;;;;;;;5.50;1.67;;;21.60;62.30;;;;;;5037194;28;20473;-74
2023/07/13 00:02:49;;;;;;;5.33;2.20;;;21.60;62.60;;;;;;5033825;28;20485;-74
2023/07/13 00:05:15;;;;;;;3.20;2.00;;;21.60;61.90;;;;;;5033394;28;20208;-75
2023/07/13 00:07:41;;;;;;;7.60;1.97;;;21.50;62.00;;;;;;5027906;28;20237;-75
2023/07/13 00:10:08;;;;;;;3.00;1.90;;;21.50;61.90;;;;;;5027964;28;20494;-72
2023/07/13 00:12:35;;;;;;;6.13;2.33;;;21.50;62.20;;;;;;5032728;28;20247;-74
2023/07/13 00:15:05;;;;;;;6.03;2.07;;;21.40;61.50;;;;;;5032417;28;20480;-75
2023/07/13 00:17:31;;;;;;;4.70;1.70;;;21.40;61.90;;;;;;5032455;28;20442;-74
2023/07/13 00:19:58;;;;;;;4.00;1.90;;;21.40;62.00;;;;;;5029401;28;20458;-73
2023/07/13 00:22:25;;;;;;;4.93;2.00;;;21.40;61.20;;;;;;5031867;28;20275;-73
2023/07/13 00:24:53;;;;;;;3.07;1.90;;;21.30;61.60;;;;;;5032870;28;20422;-74
2023/07/13 00:27:19;;;;;;;2.80;1.53;;;21.20;61.70;;;;;;5032205;28;20441;-74
2023/07/13 00:29:44;;;;;;;4.53;1.97;;;21.30;61.60;;;;;;5026476;28;20445;-74
2023/07/13 00:32:11;;;;;;;6.10;2.03;;;21.30;61.30;;;;;;5032298;28;20481;-71
2023/07/13 00:34:38;;;;;;;7.10;1.80;;;21.20;61.70;;;;;;5032527;28;20672;-72
2023/07/13 00:37:06;;;;;;;4.43;1.87;;;21.20;61.60;;;;;;5028663;28;20438;-74
2023/07/13 00:39:33;;;;;;;5.77;2.30;;;21.10;61.70;;;;;;5029716;28;21047;-73
2023/07/13 00:41:58;;;;;;;6.90;1.90;;;21.10;61.90;;;;;;5029662;28;20434;-73
2023/07/13 00:44:24;;;;;;;3.27;1.90;;;21.10;61.60;;;;;;5028796;28;20429;-74
2023/07/13 00:46:50;;;;;;;3.23;1.80;;;21.00;61.90;;;;;;5026005;28;20217;-73
2023/07/13 00:49:18;;;;;;;3.53;1.73;;;21.00;61.70;;;;;;5029814;28;20257;-74
2023/07/13 00:51:56;;;;;;;3.27;1.73;;;21.10;61.70;;;;;;5028750;28;20643;-76
2023/07/13 00:54:30;;;;;;;2.80;1.80;;;21.00;61.30;;;;;;5029716;28;20443;-74
2023/07/13 00:57:00;;;;;;;5.07;2.47;;;21.00;61.50;;;;;;5031599;28;20835;-75
2023/07/13 00:59:26;;;;;;;4.40;2.20;;;20.90;61.60;;;;;;5026549;28;20839;-74
2023/07/13 01:01:52;;;;;;;3.90;1.80;;;20.90;61.60;;;;;;5028984;28;20445;-73
2023/07/13 01:04:18;;;;;;;3.00;2.30;;;20.90;61.70;;;;;;5031998;28;20472;-74
2023/07/13 01:06:46;;;;;;;3.33;2.27;;;20.90;62.00;;;;;;5032022;28;20228;-75
2023/07/13 01:09:14;;;;;;;5.23;1.80;;;20.90;61.60;;;;;;5031193;28;20999;-78
2023/07/13 01:11:41;;;;;;;4.80;1.90;;;20.90;61.00;;;;;;5027234;28;20596;-73
2023/07/13 01:14:07;;;;;;;3.80;1.80;;;20.80;61.00;;;;;;5038012;28;20846;-73
2023/07/13 01:16:34;;;;;;;3.83;1.90;;;20.80;61.30;;;;;;5030589;28;20485;-76
2023/07/13 01:19:02;;;;;;;2.63;1.40;;;20.80;61.20;;;;;;5025106;28;20484;-79
2023/07/13 01:21:32;;;;;;;4.47;1.67;;;20.60;62.00;;;;;;5024662;28;20540;-74
2023/07/13 01:23:58;;;;;;;4.77;2.00;;;20.60;62.30;;;;;;5028700;28;20996;-74
2023/07/13 01:26:23;;;;;;;7.13;2.23;;;20.60;62.30;;;;;;5025041;28;20441;-75
2023/07/13 01:28:49;;;;;;;5.77;1.97;;;20.50;62.60;;;;;;5031105;28;20189;-75
2023/07/13 01:31:15;;;;;;;2.50;1.43;;;20.50;63.10;;;;;;5030693;28;20250;-76
2023/07/13 01:33:41;;;;;;;5.80;2.30;;;20.40;63.10;;;;;;5032975;28;20497;-75
2023/07/13 01:36:07;;;;;;;4.70;1.60;;;20.40;63.10;;;;;;5030823;28;20198;-73
2023/07/13 01:38:34;;;;;;;4.20;1.90;;;20.30;63.20;;;;;;5028946;28;20433;-72
2023/07/13 01:41:00;;;;;;;3.13;1.87;;;20.20;63.20;;;;;;5027453;28;20521;-72
2023/07/13 01:43:26;;;;;;;4.33;2.20;;;20.20;63.70;;;;;;5024496;28;20838;-73
2023/07/13 01:45:52;;;;;;;6.67;2.20;;;20.20;63.10;;;;;;5027006;28;20255;-72
2023/07/13 01:48:18;;;;;;;4.50;2.03;;;20.20;63.50;;;;;;5031588;28;20453;-73
2023/07/13 01:50:43;;;;;;;4.83;2.00;;;20.10;63.70;;;;;;5028029;28;20989;-73
2023/07/13 01:53:09;;;;;;;7.30;2.03;;;20.00;64.10;;;;;;5026130;28;20280;-74
2023/07/13 01:55:35;;;;;;;6.17;2.43;;;20.00;64.50;;;;;;5031250;28;20214;-74
2023/07/13 01:58:02;;;;;;;5.13;2.10;;;20.00;64.20;;;;;;5031301;28;20527;-72
2023/07/13 02:00:27;;;;;;;5.80;1.97;;;20.00;64.50;;;;;;5028079;28;20502;-73
2023/07/13 02:02:53;;;;;;;3.53;1.70;;;20.00;64.50;;;;;;5032609;28;20420;-73
2023/07/13 02:05:19;;;;;;;4.30;2.03;;;20.00;64.70;;;;;;5032079;28;20212;-75
2023/07/13 02:07:45;;;;;;;3.50;1.90;;;19.90;64.50;;;;;;5031137;28;20221;-74
2023/07/13 02:10:11;;;;;;;4.63;2.37;;;19.90;64.70;;;;;;5027121;28;20471;-74
2023/07/13 02:12:37;;;;;;;2.80;1.80;;;19.90;64.20;;;;;;5031627;28;20193;-72
2023/07/13 02:15:04;;;;;;;3.30;1.97;;;19.90;63.80;;;;;;5030406;28;20433;-72
2023/07/13 02:17:31;;;;;;;4.90;2.57;;;19.90;64.10;;;;;;5030607;28;20447;-71
2023/07/13 02:19:57;;;;;;;6.97;2.37;;;19.90;64.10;;;;;;5026659;28;21008;-72
2023/07/13 02:22:23;;;;;;;4.43;2.00;;;19.90;64.40;;;;;;5031449;28;20456;-71
2023/07/13 02:24:49;;;;;;;2.83;1.80;;;19.90;64.80;;;;;;5031761;28;20194;-72
2023/07/13 02:27:15;;;;;;;7.37;2.03;;;19.80;64.80;;;;;;5030814;28;20201;-74
2023/07/13 02:29:41;;;;;;;3.37;1.70;;;19.80;64.80;;;;;;5027741;28;20432;-72
2023/07/13 02:32:07;;;;;;;2.50;1.90;;;19.80;64.40;;;;;;5027952;28;20495;-71
2023/07/13 02:34:33;;;;;;;3.50;1.90;;;19.80;64.80;;;;;;5033509;28;20215;-73
2023/07/13 02:36:59;;;;;;;3.47;2.43;;;19.70;65.60;;;;;;5032424;28;20437;-72
2023/07/13 02:39:25;;;;;;;8.57;2.13;;;19.70;65.80;;;;;;5032974;28;20861;-73
2023/07/13 02:41:50;;;;;;;3.70;2.30;;;19.70;66.00;;;;;;5033616;28;20231;-73
2023/07/13 02:44:16;;;;;;;4.80;2.40;;;19.70;65.60;;;;;;5038838;28;20202;-74
2023/07/13 02:46:41;;;;;;;4.13;1.80;;;19.60;65.10;;;;;;5037163;28;20195;-75
2023/07/13 02:49:07;;;;;;;4.57;2.10;;;19.50;65.70;;;;;;5031604;28;20188;-74
2023/07/13 02:51:35;;;;;;;3.00;2.10;;;19.50;65.30;;;;;;5022615;28;20234;-74
2023/07/13 02:54:02;;;;;;;4.63;1.90;;;19.40;66.40;;;;;;5030486;28;20196;-74
2023/07/13 02:56:30;;;;;;;7.53;1.93;;;19.40;66.70;;;;;;5029738;28;20525;-75
2023/07/13 02:58:55;;;;;;;4.80;1.87;;;19.40;66.60;;;;;;5030033;28;20439;-74
2023/07/13 03:01:22;;;;;;;3.10;1.93;;;19.40;66.40;;;;;;5027826;28;20610;-74
2023/07/13 03:03:52;;;;;;;3.30;1.90;;;19.40;67.30;;;;;;5031188;28;20218;-76
2023/07/13 03:06:17;;;;;;;3.70;2.33;;;19.30;67.30;;;;;;5032524;28;20872;-74
2023/07/13 03:08:44;;;;;;;3.07;2.10;;;19.30;67.70;;;;;;5032518;28;20976;-72
2023/07/13 03:11:15;;;;;;;6.17;2.60;;;19.20;67.50;;;;;;5026525;28;20221;-74
2023/07/13 03:13:42;;;;;;;3.93;2.00;;;19.00;67.60;;;;;;5035932;28;20492;-74
2023/07/13 03:16:10;;;;;;;7.93;2.10;;;19.00;67.70;;;;;;5034258;28;20963;-73
2023/07/13 03:18:36;;;;;;;3.10;2.20;;;19.00;67.90;;;;;;5033806;28;20866;-75
2023/07/13 03:21:03;;;;;;;4.50;2.17;;;19.10;67.70;;;;;;5030670;28;20474;-73
2023/07/13 03:23:28;;;;;;;2.97;1.83;;;19.10;67.90;;;;;;5031834;28;20938;-75
2023/07/13 03:26:20;;;;;;;7.13;2.30;;;19.10;68.20;;;;;;5030629;28;20527;-74
2023/07/13 03:28:47;;;;;;;4.87;2.20;;;19.10;68.50;;;;;;5030059;28;21049;-73
2023/07/13 03:31:16;;;;;;;6.93;2.40;;;19.00;68.60;;;;;;5036766;28;20568;-76
2023/07/13 03:33:43;;;;;;;4.23;2.20;;;18.80;69.40;;;;;;5036971;28;20548;-74
2023/07/13 03:36:21;;;;;;;2.90;1.73;;;18.80;69.50;;;;;;5029794;28;20445;-72
2023/07/13 03:38:52;;;;;;;2.67;1.90;;;18.70;69.50;;;;;;5035063;28;20434;-71
2023/07/13 03:41:18;;;;;;;4.83;2.13;;;18.80;69.40;;;;;;5032298;28;20464;-74
2023/07/13 03:43:44;;;;;;;3.40;2.27;;;18.80;69.20;;;;;;5041991;28;20432;-75
2023/07/13 03:46:10;;;;;;;4.10;2.13;;;18.80;68.90;;;;;;5040130;28;20191;-75
2023/07/13 03:48:36;;;;;;;4.70;2.27;;;18.80;69.10;;;;;;5030851;28;20454;-73
2023/07/13 03:51:02;;;;;;;2.87;1.77;;;18.80;68.50;;;;;;5029760;28;20254;-73
2023/07/13 03:53:28;;;;;;;4.60;2.13;;;18.90;68.50;;;;;;5033374;28;20201;-74
2023/07/13 03:55:53;;;;;;;5.00;2.23;;;19.00;68.50;;;;;;5031820;28;20433;-74
2023/07/13 03:58:34;;;;;;;5.33;2.33;;;19.00;68.50;;;;;;5032839;28;20191;-75
2023/07/13 04:01:02;;;;;;;3.93;1.70;;;19.10;67.90;;;;;;5029019;28;20207;-75
2023/07/13 04:03:29;;;;;;;4.27;2.17;;;19.10;68.30;;;;;;5030477;28;20449;-74
2023/07/13 04:05:59;;;;;;;8.67;2.40;;;19.20;68.20;;;;;;5029981;28;20424;-73
2023/07/13 04:08:26;;;;;;;7.77;2.70;;;19.20;68.30;;;;;;5032048;28;20423;-73
2023/07/13 04:10:51;;;;;;;6.50;2.23;;;19.10;68.30;;;;;;5029324;28;20613;-74
2023/07/13 04:13:17;;;;;;;5.10;2.53;;;19.20;68.20;;;;;;5032399;28;21032;-73
2023/07/13 04:15:43;;;;;;;5.20;2.17;;;19.20;67.90;;;;;;5032899;28;20192;-74
2023/07/13 04:18:08;;;;;;;3.13;2.30;;;19.20;68.20;;;;;;5031844;28;20204;-75
2023/07/13 04:20:35;;;;;;;7.13;2.40;;;19.30;67.30;;;;;;5028847;28;20470;-75
2023/07/13 04:23:00;;;;;;;8.73;2.40;;;19.30;66.60;;;;;;5031029;28;20185;-74
2023/07/13 04:25:27;;;;;;;3.50;2.00;;;19.30;66.30;;;;;;5027758;28;20428;-73
2023/07/13 04:27:53;;;;;;;3.90;2.20;;;19.30;67.20;;;;;;5032596;28;20632;-74
2023/07/13 04:30:19;;;;;;;4.10;2.50;;;19.30;66.90;;;;;;5028926;28;20504;-74
2023/07/13 04:32:45;;;;;;;7.57;2.50;;;19.30;67.00;;;;;;5032106;28;20434;-74
2023/07/13 04:35:11;;;;;;;3.93;1.97;;;19.20;67.90;;;;;;5031856;28;21011;-74
2023/07/13 04:37:36;;;;;;;4.83;2.43;;;19.20;67.70;;;;;;5032165;28;20967;-74
2023/07/13 04:40:03;;;;;;;5.90;2.10;;;19.20;67.70;;;;;;5028244;28;20211;-75
2023/07/13 04:42:29;;;;;;;4.63;2.10;;;19.20;66.90;;;;;;5032580;28;20194;-73
2023/07/13 04:44:55;;;;;;;6.93;2.27;;;19.20;67.90;;;;;;5033616;28;20422;-76
2023/07/13 04:47:20;;;;;;;4.83;2.27;;;19.20;66.70;;;;;;5034818;28;20454;-74
2023/07/13 04:49:46;;;;;;;3.30;2.50;;;19.20;67.20;;;;;;5030892;28;20281;-77
2023/07/13 04:52:12;;;;;;;3.20;2.40;;;19.20;66.70;;;;;;5034092;28;20309;-74
2023/07/13 04:54:38;;;;;;;5.47;2.53;;;19.20;67.20;;;;;;5033176;28;20212;-74
2023/07/13 04:57:06;;;;;;;5.90;2.40;;;19.10;66.90;;;;;;5031705;28;20182;-75
2023/07/13 04:59:32;;;;;;;4.77;2.80;;;19.10;67.50;;;;;;5027988;28;20529;-74
2023/07/13 05:01:58;;;;;;;5.37;2.37;;;19.10;66.30;;;;;;5030903;28;20448;-75
2023/07/13 05:04:24;;;;;;;4.33;2.50;;;19.20;66.60;;;;;;5028749;28;20426;-75
2023/07/13 05:06:49;;;;;;;4.97;2.50;;;19.20;67.70;;;;;;5028072;28;20228;-75
2023/07/13 05:09:15;;;;;;;4.40;2.90;;;19.20;67.50;;;;;;5032334;28;20198;-76
2023/07/13 05:11:41;;;;;;;3.90;2.50;;;19.20;68.00;;;;;;5030448;28;20241;-74
2023/07/13 05:14:06;;;;;;;3.83;2.20;;;19.10;68.30;;;;;;5033848;28;20191;-77
2023/07/13 05:16:32;;;;;;;3.30;2.20;;;19.20;67.60;;;;;;5029303;28;20207;-76
2023/07/13 05:18:58;;;;;;;3.30;2.07;;;19.20;68.50;;;;;;5033342;28;20186;-75
2023/07/13 05:21:23;;;;;;;6.93;2.67;;;19.20;66.70;;;;;;5031020;28;20212;-75
2023/07/13 05:23:50;;;;;;;7.60;2.53;;;19.30;67.70;;;;;;5036565;28;20184;-75
2023/07/13 05:26:16;;;;;;;5.27;2.37;;;19.40;67.20;;;;;;5037506;28;20202;-76
2023/07/13 05:28:42;;;;;;;3.63;2.23;;;19.40;66.30;;;;;;5036549;28;20804;-74
2023/07/13 05:31:09;;;;;;;4.47;2.90;;;19.40;66.40;;;;;;5036406;28;20223;-74
2023/07/13 05:33:35;;;;;;;3.20;2.20;;;19.50;66.70;;;;;;5042303;28;20429;-76
2023/07/13 05:36:01;;;;;;;6.07;2.93;;;19.40;66.30;;;;;;5042866;28;21031;-74
2023/07/13 05:38:27;;;;;;;8.73;2.30;;;19.60;65.40;;;;;;5036498;28;20424;-72
2023/07/13 05:40:55;;;;;;;5.37;2.80;;;19.60;64.50;;;;;;5033946;28;20471;-73
2023/07/13 05:43:22;;;;;;;3.50;2.27;;;19.80;64.10;;;;;;5032926;28;20428;-73
2023/07/13 05:45:48;;;;;;;5.60;2.60;;;19.80;63.70;;;;;;5033983;28;20444;-73
2023/07/13 05:48:13;;;;;;;7.23;2.77;;;19.90;63.50;;;;;;5031857;28;20455;-75
2023/07/13 05:50:39;;;;;;;5.43;2.47;;;19.90;63.70;;;;;;5031518;28;20584;-75
2023/07/13 05:53:05;;;;;;;4.37;2.60;;;20.10;63.40;;;;;;5037937;28;20221;-74
2023/07/13 05:55:31;;;;;;;7.40;2.67;;;20.00;62.90;;;;;;5034190;28;20466;-74
2023/07/13 05:57:57;;;;;;;5.83;2.70;;;20.10;63.70;;;;;;5028521;28;20182;-73
2023/07/13 06:00:24;;;;;;;6.00;2.90;;;20.20;63.50;;;;;;5032721;28;20255;-74
2023/07/13 06:02:50;;;;;;;3.67;2.60;;;20.40;62.60;;;;;;5032556;28;20424;-74
2023/07/13 06:05:16;;;;;;;5.07;2.80;;;20.40;62.00;;;;;;5039286;28;20471;-73
2023/07/13 06:07:42;;;;;;;6.10;2.53;;;20.30;61.50;;;;;;5026785;28;20244;-75
2023/07/13 06:10:08;;;;;;;4.60;2.70;;;20.10;61.60;;;;;;5027832;28;20468;-74
2023/07/13 06:12:33;;;;;;;4.23;2.47;;;19.90;62.60;;;;;;5030626;28;20763;-73
2023/07/13 06:14:59;;;;;;;9.53;2.80;;;19.90;62.90;;;;;;5029921;28;20438;-73
2023/07/13 06:17:24;;;;;;;10.30;2.63;;;19.90;63.20;;;;;;5030199;28;20973;-74
2023/07/13 06:19:50;;;;;;;7.33;2.80;;;19.80;63.80;;;;;;5027048;28;20204;-74
2023/07/13 06:22:16;;;;;;;11.80;3.30;;;19.70;64.50;;;;;;5035804;28;20667;-74
2023/07/13 06:24:41;;;;;;;4.40;2.60;;;19.70;64.50;;;;;;5033345;28;20181;-74
2023/07/13 06:27:07;;;;;;;5.40;3.10;;;19.80;64.10;;;;;;5032084;28;20301;-74
2023/07/13 06:29:33;;;;;;;6.60;2.60;;;19.80;63.70;;;;;;5028969;28;20529;-75
2023/07/13 06:31:58;;;;;;;5.97;3.07;;;19.70;63.20;;;;;;5029474;28;20513;-75
2023/07/13 06:34:24;;;;;;;5.63;2.60;;;19.70;63.40;;;;;;5031618;28;20560;-72
2023/07/13 06:36:50;;;;;;;4.73;2.57;;;19.80;62.80;;;;;;5031269;28;20251;-74
2023/07/13 06:39:15;;;;;;;7.10;3.00;;;19.80;63.20;;;;;;5022361;28;20250;-74
2023/07/13 06:41:41;;;;;;;5.57;2.87;;;19.90;63.50;;;;;;5031130;28;20215;-74
2023/07/13 06:44:07;;;;;;;4.07;2.53;;;20.10;62.50;;;;;;5035237;28;20201;-73
2023/07/13 06:46:33;;;;;;;3.87;2.50;;;20.30;61.50;;;;;;5032633;28;20192;-73
2023/07/13 06:48:58;;;;;;;6.10;2.93;;;20.50;61.00;;;;;;5031307;28;20434;-72
2023/07/13 06:51:25;;;;;;;5.30;2.70;;;20.60;60.00;;;;;;5033679;28;20635;-72
2023/07/13 06:53:51;;;;;;;3.77;2.60;;;20.50;60.40;;;;;;5036212;28;20643;-73
2023/07/13 06:56:17;;;;;;;6.17;2.63;;;20.60;60.60;;;;;;5034381;28;20434;-73
2023/07/13 06:58:43;;;;;;;4.30;2.53;;;20.60;60.10;;;;;;5030859;28;20186;-73
2023/07/13 07:01:09;;;;;;;4.87;2.60;;;20.70;60.30;;;;;;5031067;28;20197;-72
2023/07/13 07:03:34;;;;;;;3.87;2.53;;;20.80;60.10;;;;;;5028022;28;20898;-72
2023/07/13 07:06:18;;;;;;;7.53;2.77;;;20.90;60.30;;;;;;5034237;28;20420;-73
2023/07/13 07:08:47;;;;;;;5.20;2.10;;;20.90;59.20;;;;;;5030514;28;20201;-73
2023/07/13 07:11:16;;;;;;;5.10;2.47;;;21.00;56.60;;;;;;5028866;28;20931;-72
2023/07/13 07:13:41;;;;;;;4.90;1.90;;;21.10;55.60;;;;;;5035626;28;20926;-73
2023/07/13 07:16:08;;;;;;;3.90;2.20;;;20.80;55.70;;;;;;5036288;28;20519;-73
2023/07/13 07:18:34;;;;;;;4.47;2.07;;;20.90;56.40;;;;;;5036585;28;20202;-72
2023/07/13 07:21:00;;;;;;;4.07;2.17;;;21.10;55.70;;;;;;5029758;28;20544;-72
2023/07/13 07:23:25;;;;;;;2.90;2.00;;;21.10;55.70;;;;;;5037999;28;20528;-72
2023/07/13 07:25:51;;;;;;;4.50;1.97;;;21.10;55.80;;;;;;5038792;28;20197;-73
2023/07/13 07:28:18;;;;;;;5.30;2.47;;;20.90;55.70;;;;;;5040008;28;20216;-73
2023/07/13 07:30:45;;;;;;;2.27;1.87;;;21.10;55.70;;;;;;5035408;28;20519;-73
2023/07/13 07:33:11;;;;;;;5.83;2.10;;;21.30;54.90;;;;;;5035748;28;20934;-72
2023/07/13 07:35:36;;;;;;;3.73;1.90;;;21.30;55.30;;;;;;5035749;28;20430;-72
2023/07/13 07:38:02;;;;;;;2.73;1.63;;;21.40;54.10;;;;;;5034473;28;20210;-73
2023/07/13 07:40:28;;;;;;;4.23;2.20;;;21.50;53.20;;;;;;5031484;28;20282;-71
2023/07/13 07:42:54;;;;;;;5.60;2.43;;;21.50;54.60;;;;;;5035893;28;20278;-72
2023/07/13 07:45:20;;;;;;;7.93;2.10;;;21.20;55.00;;;;;;5035752;28;20203;-73
2023/07/13 07:47:46;;;;;;;5.03;2.10;;;21.20;54.80;;;;;;5035749;28;20243;-73
2023/07/13 07:50:12;;;;;;;3.03;1.73;;;21.20;54.50;;;;;;5031211;28;20485;-73
2023/07/13 07:52:37;;;;;;;7.33;2.30;;;21.30;54.40;;;;;;5033756;28;20223;-72
2023/07/13 07:55:05;;;;;;;4.70;1.87;;;21.40;53.00;;;;;;5033940;28;20199;-71
2023/07/13 07:57:31;;;;;;;5.47;2.13;;;21.20;54.10;;;;;;5035537;28;20190;-72
2023/07/13 07:59:56;;;;;;;3.57;1.70;;;21.30;54.50;;;;;;5032025;28;20470;-71
2023/07/13 08:02:22;;;;;;;4.50;2.03;;;21.50;54.10;;;;;;5035011;28;20245;-72
2023/07/13 08:04:47;;;;;;;3.97;1.83;;;21.60;53.60;;;;;;5034654;28;20189;-71
2023/07/13 08:07:13;;;;;;;5.23;2.00;;;21.60;52.60;;;;;;5034257;28;20188;-73
2023/07/13 08:09:38;;;;;;;4.73;2.00;;;21.80;52.50;;;;;;5032906;28;20191;-72
2023/07/13 08:12:05;;;;;;;4.83;2.00;;;21.90;52.40;;;;;;5033634;28;20219;-72
2023/07/13 08:14:30;;;;;;;3.37;1.50;;;22.10;51.60;;;;;;5035783;28;20218;-71
2023/07/13 08:16:56;;;;;;;4.07;1.70;;;22.00;51.30;;;;;;5031992;28;20928;-71
2023/07/13 08:19:21;;;;;;;7.53;2.53;;;21.90;51.70;;;;;;5033664;28;20216;-71
2023/07/13 08:21:48;;;;;;;2.60;1.87;;;21.90;51.70;;;;;;5036791;28;20201;-71
2023/07/13 08:24:14;;;;;;;3.03;2.00;;;21.80;51.40;;;;;;5039642;28;20189;-71
2023/07/13 08:26:40;;;;;;;7.33;2.37;;;21.90;50.90;;;;;;5035926;28;20446;-73
2023/07/13 08:29:05;;;;;;;7.60;2.10;;;21.80;51.70;;;;;;5034964;28;20187;-73
2023/07/13 08:31:31;;;;;;;5.50;2.00;;;21.70;52.20;;;;;;5029547;28;20723;-72
2023/07/13 08:33:57;;;;;;;4.60;2.00;;;21.60;52.10;;;;;;5035685;28;20192;-73
2023/07/13 08:36:22;;;;;;;4.00;2.10;;;21.50;52.60;;;;;;5038629;28;20200;-72
2023/07/13 08:38:48;;;;;;;5.03;2.10;;;21.50;52.50;;;;;;5036628;28;20192;-71
2023/07/13 08:41:16;;;;;;;2.93;2.20;;;21.70;52.40;;;;;;5031478;28;20311;-71
2023/07/13 08:43:47;;;;;;;3.73;2.20;;;21.90;52.10;;;;;;5033602;28;20196;-72
2023/07/13 08:46:34;;;;;;;3.80;2.13;;;21.90;52.50;;;;;;5036811;28;20518;-72
2023/07/13 08:49:13;;;;;;;6.20;2.20;;;22.10;52.10;;;;;;5034465;28;20448;-72
2023/07/13 08:51:50;;;;;;;5.57;2.03;;;22.20;51.80;;;;;;5033040;28;20486;-72
2023/07/13 08:54:18;;;;;;;5.70;2.07;;;22.40;52.10;;;;;;5034765;28;20475;-71
2023/07/13 08:56:47;;;;;;;5.10;2.50;;;22.40;52.40;;;;;;5037609;28;20445;-71
2023/07/13 08:59:16;;;;;;;7.33;2.40;;;22.60;52.50;;;;;;5042349;28;20550;-72
2023/07/13 09:02:03;;;;;;;4.43;2.00;;;22.70;52.50;;;;;;5033245;28;20562;-72
2023/07/13 09:04:46;;;;;;;5.80;2.80;;;22.40;52.10;;;;;;5029881;28;20429;-72
2023/07/13 09:07:27;;;;;;;9.27;2.53;;;22.40;52.40;;;;;;5027069;28;20518;-71
2023/07/13 09:10:17;;;;;;;7.10;2.83;;;22.30;53.00;;;;;;5026972;28;20540;-71
2023/07/13 09:13:12;;;;;;;5.50;2.30;;;22.30;53.00;;;;;;5034143;28;20454;-71
2023/07/13 09:15:44;;;;;;;5.50;2.37;;;22.20;52.90;;;;;;5028044;28;20429;-70
2023/07/13 09:18:10;;;;;;;4.00;2.40;;;22.50;52.50;;;;;;5032871;28;20473;-72
2023/07/13 09:20:46;;;;;;;4.03;2.40;;;22.50;52.40;;;;;;5032246;28;20489;-74
2023/07/13 09:23:17;;;;;;;4.90;2.77;;;22.40;52.40;;;;;;5036099;28;20254;-72
2023/07/13 09:25:48;;;;;;;4.23;2.23;;;22.60;52.00;;;;;;5032510;28;20423;-71
2023/07/13 09:28:44;;;;;;;5.37;2.70;;;22.90;52.00;;;;;;5032794;28;20483;-72
2023/07/13 09:31:24;;;;;;;4.90;2.63;;;23.30;50.20;;;;;;4995829;28;20951;-71
2023/07/13 09:33:50;;;;;;;4.33;2.17;;;23.20;50.30;;;;;;5010611;28;20429;-72
2023/07/13 09:36:21;;;;;;;8.03;2.63;;;23.20;50.60;;;;;;5010097;28;20899;-69
2023/07/13 09:38:49;;;;;;;7.07;2.43;;;23.20;50.20;;;;;;5013162;28;20431;-71
2023/07/13 09:41:43;;;;;;;4.10;1.87;;;22.80;51.20;;;;;;5008672;28;20466;-71
2023/07/13 09:44:15;;;;;;;6.00;2.60;;;22.80;51.20;;;;;;5007514;28;20513;-72
2023/07/13 09:46:53;;;;;;;3.33;2.10;;;22.70;50.50;;;;;;5010107;28;20450;-71
2023/07/13 09:49:23;;;;;;;7.27;3.47;;;22.60;51.20;;;;;;4998590;28;20516;-74
2023/07/13 09:52:03;;;;;;;4.63;3.10;;;22.90;49.80;;;;;;5009829;28;20503;-72
2023/07/13 09:54:29;;;;;;;5.50;2.30;;;22.70;50.30;;;;;;5017293;28;20494;-72
2023/07/13 09:56:59;;;;;;;6.13;2.70;;;22.70;50.30;;;;;;5010252;28;20987;-71
2023/07/13 09:59:30;;;;;;;6.00;2.37;;;22.90;50.20;;;;;;5008957;28;20719;-73
2023/07/13 10:01:55;;;;;;;4.67;2.27;;;23.20;49.40;;;;;;5007747;28;20462;-73
2023/07/13 10:04:33;;;;;;;4.03;2.20;;;23.40;48.20;;;;;;5007349;28;20433;-73
2023/07/13 10:07:07;;;;;;;5.50;2.30;;;23.60;48.50;;;;;;5013067;28;20269;-71
2023/07/13 10:09:33;;;;;;;4.70;2.30;;;23.60;48.50;;;;;;5029622;28;20927;-71
2023/07/13 10:11:59;;;;;;;5.37;2.53;;;23.70;48.60;;;;;;5031875;28;20470;-72
2023/07/13 10:14:25;;;;;;;5.03;2.27;;;23.80;47.90;;;;;;5033729;28;20642;-72
2023/07/13 10:17:01;;;;;;;4.93;2.80;;;23.90;48.60;;;;;;5031570;28;20200;-73
2023/07/13 10:19:32;;;;;;;8.10;2.40;;;24.40;47.80;;;;;;5028288;28;20497;-72
2023/07/13 10:22:13;;;;;;;3.53;2.00;;;24.40;47.30;;;;;;5032461;28;20443;-72
2023/07/13 10:24:40;;;;;;;5.27;2.33;;;24.50;46.90;;;;;;5029947;28;20890;-72
2023/07/13 10:27:19;;;;;;;7.67;2.50;;;24.40;46.90;;;;;;5032358;28;20454;-72
2023/07/13 10:30:02;;;;;;;8.03;2.20;;;24.80;45.50;;;;;;5027896;28;20451;-72
2023/07/13 10:32:28;;;;;;;5.33;3.10;;;24.50;46.10;;;;;;5031736;28;20480;-72
2023/07/13 10:34:55;;;;;;;8.23;2.67;;;24.50;46.60;;;;;;5032638;28;20453;-71
2023/07/13 10:37:33;;;;;;;5.00;2.23;;;24.40;46.10;;;;;;5033236;28;20197;-72
2023/07/13 10:40:00;;;;;;;3.70;1.90;;;24.60;46.20;;;;;;5030641;28;21043;-70
2023/07/13 10:42:39;;;;;;;5.20;2.37;;;25.00;45.10;;;;;;5033327;28;20956;-71
2023/07/13 10:45:15;;;;;;;3.43;1.80;;;25.40;44.60;;;;;;5031053;28;20792;-72
2023/07/13 10:47:41;;;;;;;4.50;2.60;;;25.80;43.40;;;;;;5029653;28;20452;-71
2023/07/13 10:50:15;;;;;;;5.37;3.47;;;25.50;43.80;;;;;;5028891;28;20506;-72
2023/07/13 10:52:42;;;;;;;5.83;2.43;;;24.90;44.30;;;;;;5032575;28;21165;-73
2023/07/13 10:56:00;;;;;;;9.60;2.30;;;24.70;44.90;;;;;;5032909;28;20433;-72
2023/07/13 10:58:32;;;;;;;2.83;2.30;;;25.00;44.30;;;;;;4992017;28;20440;-72
2023/07/13 11:01:06;;;;;;;7.00;2.60;;;25.50;43.20;;;;;;4991262;28;20472;-73
2023/07/13 11:03:58;;;;;;;6.23;2.20;;;25.60;43.40;;;;;;4993386;28;20432;-72
2023/07/13 11:06:36;;;;;;;6.43;2.73;;;25.60;42.40;;;;;;4991888;28;20446;-72
2023/07/13 11:09:47;;;;;;;5.10;2.67;;;24.80;44.50;;;;;;4998160;28;20434;-69
2023/07/13 11:12:18;;;;;;;10.13;2.47;;;24.80;45.00;;;;;;4990074;28;20543;-72
2023/07/13 11:15:06;;;;;;;6.83;2.17;;;25.40;43.90;;;;;;4993675;28;20439;-73
2023/07/13 11:17:51;;;;;;;2.67;2.17;;;25.90;41.90;;;;;;4995969;28;20437;-72
2023/07/13 11:20:16;;;;;;;5.73;2.57;;;26.20;41.90;;;;;;4990619;28;20484;-70
2023/07/13 11:22:49;;;;;;;3.90;2.73;;;25.70;42.80;;;;;;4990741;28;20512;-73
2023/07/13 11:25:23;;;;;;;5.20;3.03;;;25.50;43.70;;;;;;4992355;28;20687;-72
2023/07/13 11:27:52;;;;;;;4.30;2.03;;;25.20;44.50;;;;;;4990533;28;20444;-72
2023/07/13 11:30:44;;;;;;;7.27;2.50;;;25.30;44.50;;;;;;4989226;28;20503;-72
2023/07/13 11:33:12;;;;;;;21.03;2.53;;;24.70;45.00;;;;;;4957878;28;20446;-72
2023/07/13 11:35:49;;;;;;;3.57;2.30;;;24.40;45.80;;;;;;5036599;28;20439;-73
2023/07/13 11:38:41;;;;;;;3.40;2.30;;;24.70;46.20;;;;;;5034210;28;20878;-72
2023/07/13 11:41:15;;;;;;;3.60;2.67;;;25.50;44.50;;;;;;5030138;28;20531;-72
2023/07/13 11:43:40;;;;;;;6.37;2.70;;;25.60;43.50;;;;;;5036505;28;20588;-71
2023/07/13 11:46:20;;;;;;;3.87;2.23;;;25.60;43.90;;;;;;5037905;28;20423;-74
2023/07/13 11:48:47;;;;;;;5.77;2.00;;;26.20;42.80;;;;;;5038311;28;20215;-72
2023/07/13 11:51:21;;;;;;;4.03;2.50;;;25.70;42.60;;;;;;5028029;28;20558;-71
2023/07/13 11:53:50;;;;;;;2.93;1.97;;;25.40;43.80;;;;;;5031949;28;20429;-71
2023/07/13 11:56:16;;;;;;;9.43;2.50;;;25.10;44.30;;;;;;5032763;28;20804;-73
2023/07/13 11:58:41;;;;;;;7.00;2.57;;;25.00;44.50;;;;;;5034385;28;20426;-72
2023/07/13 12:01:25;;;;;;;5.30;2.17;;;24.70;45.00;;;;;;5031054;28;20529;-72
2023/07/13 12:03:53;;;;;;;3.70;2.80;;;25.20;44.20;;;;;;5033854;28;20183;-72
2023/07/13 12:06:31;;;;;;;8.80;2.07;;;25.40;43.80;;;;;;5034281;28;20458;-72
2023/07/13 12:08:59;;;;;;;5.43;2.43;;;25.60;43.90;;;;;;5034591;28;20445;-71
2023/07/13 12:11:25;;;;;;;4.40;2.40;;;26.00;42.60;;;;;;5033777;28;20549;-73
2023/07/13 12:13:51;;;;;;;13.13;2.90;;;26.10;42.20;;;;;;5033090;28;20457;-72
2023/07/13 12:16:30;;;;;;;5.43;2.50;;;25.80;42.20;;;;;;5034430;28;20939;-73
2023/07/13 12:18:57;;;;;;;4.00;2.20;;;25.30;43.40;;;;;;5034680;28;20230;-72
2023/07/13 12:21:39;;;;;;;6.43;2.67;;;25.10;43.00;;;;;;5032007;28;20537;-72
2023/07/13 12:24:13;;;;;;;4.60;2.20;;;25.60;41.90;;;;;;5033714;28;20412;-72
2023/07/13 12:26:39;;;;;;;3.73;2.27;;;26.00;41.90;;;;;;5034064;28;20453;-72
2023/07/13 12:29:06;;;;;;;5.43;2.40;;;26.60;40.60;;;;;;5033203;28;20449;-73
2023/07/13 12:31:38;;;;;;;3.70;2.43;;;26.90;40.20;;;;;;5030179;28;20270;-72
2023/07/13 12:34:12;;;;;;;3.20;2.00;;;26.60;40.20;;;;;;5033260;28;20464;-73
2023/07/13 12:36:46;;;;;;;4.00;2.50;;;26.10;41.00;;;;;;5027396;28;20441;-73
2023/07/13 12:39:20;;;;;;;7.60;2.63;;;25.80;41.60;;;;;;5033034;28;20438;-73
2023/07/13 12:41:47;;;;;;;6.60;2.70;;;25.50;41.80;;;;;;5029396;28;20553;-73
2023/07/13 12:44:16;;;;;;;7.83;2.47;;;25.10;42.70;;;;;;5031237;28;20454;-74
2023/07/13 12:47:02;;;;;;;4.30;2.63;;;25.20;42.80;;;;;;5033102;28;20518;-72
2023/07/13 12:49:30;;;;;;;6.90;3.10;;;25.20;42.20;;;;;;5032824;28;20443;-73
2023/07/13 12:52:00;;;;;;;6.00;3.00;;;25.90;42.20;;;;;;5034016;28;20623;-73
2023/07/13 12:54:27;;;;;;;4.57;2.30;;;26.00;41.00;;;;;;5035521;28;20858;-73